Randolph Air Force Base
KRND : now visible

Airfield :











YOU CAN JOIN US ON...

 
LOGIN :

Register | Disclaimer

   EN    FR    IT 

 









Legend :    VFR   Marginal VFR   IFR   Intensive IFR   Very Intensive IFR
Visi :
Ceiling :
>= 8 km
>= 3000ft
5 to 8 km
1000 to 3000 ft
1500m to 5 km
500 to 1000 ft
800 to 1500m
200 to 500 ft
< 800m
< 200 ft
Symbols :   Thunderstorms  Fog  Heavy snow  Heavy precipitations  Wind > 20 kt






- Airport Elevation : 761 ft


KRND - Randolph Air Force Base

CURRENT METAR :
  • 160856Z AUTO 32009KT 10SM CLR 01/M07 A3017 RMK AO2 SLP218 T00121071 50001 $

EXPIRED METARs :
  • 160756Z AUTO 31007KT 10SM CLR 02/M08 A3017 RMK AO2 SLP218 T00191077 $
  • 160656Z AUTO 28005KT 10SM CLR 03/M08 A3017 RMK AO2 SLP218 T00261079 $

TAF TAF KRND
Valid from the 15 at 17:00 until the 16 at 23:00 UTC


151645Z 1517/1623 34012G18KT 9999 SKC QNH3009INS
TEMPO 1517/1523 33015G25KT
BECMG 1523/1524 31009KT 9999 SKC QNH3007INS TX16/1521Z TNM01/1613Z LAST NO AMDS AFT 1524 NEXT 1911
KZHU FIR / North America



MET'MAP, your aeronautical weather chart ! - Copyright ORBIFLY December 2007 - Disclaimer

ORBIFLY MET'MAP TEAM :

Programming & Development : Alexandra Zaïnal
Concept & original design : Baudouin d'Aumeries
Assistance for programming : Marc-Olivier Méhu
Technical & hardware support : Manuel Goepfert

Contact : metmap@orbifly.com




SOURCES & CREDITS :

   NOAA       Earth
Advisory